createdAt,value
2022-11-14T00:00:13.849Z,25.80
2022-11-14T00:05:40.038Z,23.90
2022-11-14T00:11:00.747Z,23.57
2022-11-14T00:16:21.422Z,24.50
2022-11-14T00:21:41.890Z,23.47
2022-11-14T00:27:02.448Z,20.83
2022-11-14T00:32:22.988Z,25.37
2022-11-14T00:37:43.343Z,20.33
2022-11-14T00:43:03.781Z,24.23
2022-11-14T00:48:24.279Z,19.97
2022-11-14T00:53:44.666Z,18.57
2022-11-14T00:59:05.012Z,21.80
2022-11-14T01:04:25.625Z,21.33
2022-11-14T01:09:45.951Z,19.03
2022-11-14T01:15:07.005Z,22.03
2022-11-14T01:20:27.151Z,19.30
2022-11-14T01:25:47.625Z,20.40
2022-11-14T01:31:15.004Z,19.00
2022-11-14T01:36:35.159Z,18.47
2022-11-14T01:41:55.920Z,17.90
2022-11-14T01:47:20.956Z,17.40
2022-11-14T01:52:41.712Z,18.13
2022-11-14T01:58:03.578Z,19.03
2022-11-14T02:03:24.245Z,19.73
2022-11-14T02:08:45.383Z,18.57
2022-11-14T02:14:06.829Z,21.57
2022-11-14T02:20:04.745Z,18.17
2022-11-14T02:25:26.098Z,16.23
2022-11-14T02:30:46.463Z,18.13
2022-11-14T02:36:07.443Z,19.20
2022-11-14T02:41:27.584Z,18.67
2022-11-14T02:46:48.306Z,20.70
2022-11-14T02:52:08.826Z,18.53
2022-11-14T02:57:29.470Z,17.40
2022-11-14T03:02:49.984Z,16.27
2022-11-14T03:08:10.672Z,17.50
2022-11-14T03:13:31.216Z,17.73
2022-11-14T03:18:52.112Z,17.77
2022-11-14T03:24:12.631Z,18.20
2022-11-14T03:29:32.964Z,20.20
2022-11-14T03:34:53.522Z,22.37
2022-11-14T03:40:13.789Z,17.67
2022-11-14T03:45:34.025Z,19.40
2022-11-14T03:50:54.707Z,21.67
2022-11-14T03:56:15.160Z,18.17
2022-11-14T04:01:35.802Z,16.50
2022-11-14T04:06:56.243Z,19.23
2022-11-14T04:12:16.721Z,18.63
2022-11-14T04:17:39.905Z,16.77
2022-11-14T04:23:00.242Z,21.23
2022-11-14T04:28:20.683Z,18.47
2022-11-14T04:33:41.216Z,19.60
2022-11-14T04:39:01.923Z,18.90
2022-11-14T04:44:22.438Z,16.80
2022-11-14T04:49:43.027Z,20.60
2022-11-14T04:55:03.640Z,18.63
2022-11-14T05:00:24.930Z,17.37
2022-11-14T05:05:45.121Z,19.97
2022-11-14T05:11:05.746Z,18.53
2022-11-14T05:16:26.066Z,19.80
2022-11-14T05:21:46.704Z,18.63
2022-11-14T05:27:07.196Z,15.90
2022-11-14T05:32:27.384Z,19.27
2022-11-14T05:37:47.853Z,18.03
2022-11-14T05:43:08.615Z,18.87
2022-11-14T05:48:30.413Z,18.77
2022-11-14T05:53:51.305Z,18.80
2022-11-14T05:59:11.956Z,19.07
2022-11-14T06:04:32.416Z,17.63
2022-11-14T06:09:52.996Z,16.67
2022-11-14T06:15:13.581Z,15.87
2022-11-14T06:20:34.159Z,20.67
2022-11-14T06:26:08.222Z,17.10
2022-11-14T06:31:28.658Z,16.90
2022-11-14T06:36:48.800Z,17.37
2022-11-14T06:42:09.423Z,21.27
2022-11-14T06:47:29.699Z,18.80
2022-11-14T06:52:50.401Z,20.37
2022-11-14T06:58:10.907Z,19.33
2022-11-14T07:03:32.217Z,16.80
2022-11-14T07:08:54.074Z,16.80
2022-11-14T07:14:14.279Z,19.27
2022-11-14T07:19:35.028Z,17.87
2022-11-14T07:24:55.135Z,18.67
2022-11-14T07:30:15.745Z,15.87
2022-11-14T07:35:36.245Z,16.60
2022-11-14T07:41:02.226Z,19.40
2022-11-14T07:46:22.815Z,18.07
2022-11-14T07:51:43.573Z,15.60
2022-11-14T07:57:03.944Z,17.60
2022-11-14T08:02:24.445Z,19.30
2022-11-14T08:07:44.877Z,27.60
2022-11-14T08:18:46.929Z,23.10
2022-11-14T08:24:07.728Z,23.43
2022-11-14T08:29:27.985Z,23.23
2022-11-14T08:34:48.673Z,27.37
2022-11-14T08:40:10.813Z,35.83
2022-11-14T08:45:31.113Z,29.50
2022-11-14T08:50:51.903Z,40.27
2022-11-14T08:56:12.372Z,35.47
2022-11-14T09:01:33.097Z,33.00
2022-11-14T09:06:53.728Z,22.63
2022-11-14T09:12:14.265Z,18.30
2022-11-14T09:17:35.322Z,14.27
2022-11-14T09:23:00.075Z,14.87
2022-11-14T09:28:20.643Z,14.50
2022-11-14T09:33:41.441Z,15.20
2022-11-14T09:39:01.924Z,11.30
2022-11-14T09:44:39.013Z,13.03
2022-11-14T09:50:08.117Z,12.20
2022-11-14T09:55:36.317Z,13.03
2022-11-14T10:01:09.866Z,15.03
2022-11-14T10:06:35.509Z,16.57
2022-11-14T10:12:11.175Z,17.27
2022-11-14T10:18:05.516Z,14.40
2022-11-14T10:23:35.872Z,15.67
2022-11-14T10:29:24.417Z,15.53
2022-11-14T10:35:02.996Z,14.53
2022-11-14T10:40:29.397Z,16.07
2022-11-14T10:46:10.179Z,13.30
2022-11-14T10:51:55.874Z,18.40
2022-11-14T10:57:21.326Z,18.97
2022-11-14T11:02:56.554Z,16.57
2022-11-14T11:08:43.725Z,14.83
2022-11-14T11:14:04.956Z,14.80
2022-11-14T11:19:26.818Z,13.73
2022-11-14T11:24:47.315Z,13.70
2022-11-14T11:30:23.262Z,14.13
2022-11-14T11:35:47.765Z,13.90
2022-11-14T11:41:25.952Z,20.60
2022-11-14T11:46:57.627Z,11.97
2022-11-14T11:52:26.378Z,16.77
2022-11-14T11:58:25.321Z,15.40
2022-11-14T12:03:51.383Z,15.57
2022-11-14T12:09:20.829Z,15.50
2022-11-14T12:15:10.546Z,16.53
2022-11-14T12:20:36.897Z,16.13
2022-11-14T12:26:02.027Z,18.20
2022-11-14T12:31:22.352Z,14.87
2022-11-14T12:36:45.982Z,19.77
2022-11-14T12:42:10.741Z,19.00
2022-11-14T12:47:31.044Z,19.17
2022-11-14T12:52:54.083Z,18.43
2022-11-14T12:58:30.321Z,23.23
2022-11-14T13:04:24.683Z,22.13
2022-11-14T13:10:03.602Z,24.40
2022-11-14T13:15:49.537Z,23.93
2022-11-14T13:21:47.134Z,22.93
2022-11-14T13:27:45.137Z,20.63
2022-11-14T13:33:07.470Z,22.80
2022-11-14T13:38:43.984Z,26.23
2022-11-14T13:44:24.700Z,26.53
2022-11-14T13:49:53.926Z,31.23
2022-11-14T13:55:22.661Z,28.73
2022-11-14T14:01:22.368Z,23.60
2022-11-14T14:07:08.587Z,25.07
2022-11-14T14:12:52.605Z,23.13
2022-11-14T14:18:29.182Z,24.53
2022-11-14T14:24:15.912Z,23.23
2022-11-14T14:29:55.191Z,29.57
2022-11-14T14:35:27.385Z,22.87
2022-11-14T14:40:48.106Z,24.30
2022-11-14T14:46:08.839Z,23.77
2022-11-14T14:51:35.075Z,23.17
2022-11-14T14:57:02.618Z,26.17
2022-11-14T15:02:24.207Z,26.80
2022-11-14T15:07:46.392Z,26.77
2022-11-14T15:13:11.091Z,28.03
2022-11-14T15:18:33.129Z,26.13
2022-11-14T15:24:14.664Z,29.97
2022-11-14T15:29:35.356Z,25.77
2022-11-14T15:35:27.112Z,27.30
2022-11-14T15:41:18.844Z,27.43
2022-11-14T15:46:42.326Z,28.47
2022-11-14T15:52:03.484Z,31.50
2022-11-14T15:57:24.028Z,24.07
2022-11-14T16:02:49.516Z,22.67
2022-11-14T16:08:11.160Z,23.50
2022-11-14T16:13:31.477Z,19.13
2022-11-14T16:18:52.680Z,22.47
2022-11-14T16:24:23.464Z,18.47
2022-11-14T16:29:44.018Z,19.87
2022-11-14T16:35:06.400Z,18.73
2022-11-14T16:40:27.930Z,19.63
2022-11-14T16:45:48.570Z,18.73
2022-11-14T16:51:32.974Z,21.33
2022-11-14T16:56:50.152Z,21.63
2022-11-14T17:02:16.222Z,22.00
2022-11-14T17:07:37.080Z,19.37
2022-11-14T17:12:57.588Z,23.40
2022-11-14T17:18:18.238Z,20.30
2022-11-14T17:23:38.833Z,21.17
2022-11-14T17:28:59.143Z,20.07
2022-11-14T17:34:19.668Z,20.63
2022-11-14T17:39:40.505Z,18.90
2022-11-14T17:45:01.777Z,19.27
2022-11-14T17:50:22.121Z,20.10
2022-11-14T17:55:42.702Z,21.10
2022-11-14T18:01:09.546Z,20.57
2022-11-14T18:06:30.168Z,21.00
2022-11-14T18:11:50.544Z,23.53
2022-11-14T18:17:13.423Z,19.73
2022-11-14T18:22:33.848Z,19.80
2022-11-14T18:27:54.323Z,22.10
2022-11-14T18:33:14.558Z,20.67
2022-11-14T18:38:35.004Z,28.53
2022-11-14T18:43:55.755Z,27.30
2022-11-14T18:49:16.300Z,30.83
2022-11-14T18:54:36.420Z,29.70
2022-11-14T18:59:56.911Z,28.87
2022-11-14T19:05:17.592Z,30.43
2022-11-14T19:10:37.967Z,32.13
2022-11-14T19:16:03.469Z,31.17
2022-11-14T19:21:24.248Z,33.97
2022-11-14T19:26:45.155Z,34.80
2022-11-14T19:32:06.050Z,31.17
2022-11-14T19:37:26.821Z,32.27
2022-11-14T19:43:13.400Z,32.90
2022-11-14T19:48:37.974Z,29.37
2022-11-14T19:53:59.861Z,32.57
2022-11-14T19:59:24.238Z,33.87
2022-11-14T20:04:46.687Z,31.70
2022-11-14T20:10:07.979Z,35.07
2022-11-14T20:15:29.630Z,30.87
2022-11-14T20:20:50.211Z,32.57
2022-11-14T20:26:11.733Z,28.03
2022-11-14T20:31:32.284Z,28.53
2022-11-14T20:42:33.280Z,32.67
2022-11-14T20:47:54.659Z,40.30
2022-11-14T20:53:15.168Z,33.43
2022-11-14T20:58:35.988Z,30.93
2022-11-14T21:03:56.632Z,28.00
2022-11-14T21:09:17.386Z,30.47
2022-11-14T21:14:38.027Z,37.17
2022-11-14T21:19:58.362Z,39.23
2022-11-14T21:25:18.831Z,40.60
2022-11-14T21:30:39.398Z,36.03
2022-11-14T21:36:16.310Z,34.93
2022-11-14T21:41:41.668Z,34.60
2022-11-14T21:47:01.963Z,37.77
2022-11-14T21:52:25.568Z,30.20
2022-11-14T21:57:46.224Z,32.27
2022-11-14T22:03:25.247Z,38.93
2022-11-14T22:08:45.655Z,31.23
2022-11-14T22:14:07.235Z,28.80
2022-11-14T22:19:27.832Z,36.00
2022-11-14T22:24:48.113Z,23.93
2022-11-14T22:30:09.419Z,31.53
2022-11-14T22:35:29.859Z,33.43
2022-11-14T22:40:50.390Z,27.33
2022-11-14T22:46:12.857Z,26.13
2022-11-14T22:51:33.043Z,26.30
2022-11-14T22:56:53.671Z,23.43
2022-11-14T23:02:14.065Z,29.90
2022-11-14T23:07:34.728Z,22.93
2022-11-14T23:12:55.088Z,23.27
2022-11-14T23:18:15.494Z,23.63
2022-11-14T23:23:35.799Z,23.93
2022-11-14T23:28:56.444Z,23.87
2022-11-14T23:34:17.018Z,21.60
2022-11-14T23:39:37.530Z,22.87
2022-11-14T23:44:58.123Z,18.13
2022-11-14T23:50:18.662Z,22.03
2022-11-14T23:55:39.147Z,20.13
